createdAt,value
2019-05-13T00:00:53.920Z,8.30
2019-05-13T00:03:24.040Z,8.20
2019-05-13T00:05:53.811Z,8.20
2019-05-13T00:08:24.914Z,8.10
2019-05-13T00:10:54.610Z,8.10
2019-05-13T00:13:23.907Z,8.10
2019-05-13T00:15:54.386Z,8.00
2019-05-13T00:18:23.960Z,8.00
2019-05-13T00:20:54.215Z,8.00
2019-05-13T00:23:23.686Z,8.00
2019-05-13T00:25:54.556Z,8.00
2019-05-13T00:28:24.655Z,8.00
2019-05-13T00:30:54.339Z,8.10
2019-05-13T00:33:24.494Z,8.00
2019-05-13T00:35:54.119Z,7.90
2019-05-13T00:38:24.596Z,7.80
2019-05-13T00:40:54.693Z,7.80
2019-05-13T00:43:24.577Z,7.70
2019-05-13T00:45:54.186Z,7.70
2019-05-13T00:48:23.794Z,7.70
2019-05-13T00:50:54.503Z,7.60
2019-05-13T00:53:24.140Z,7.60
2019-05-13T00:55:53.755Z,7.60
2019-05-13T00:58:24.233Z,7.60
2019-05-13T01:00:54.686Z,7.60
2019-05-13T01:03:27.827Z,7.60
2019-05-13T01:05:55.059Z,7.50
2019-05-13T01:08:25.578Z,7.60
2019-05-13T01:10:54.866Z,7.60
2019-05-13T01:13:24.202Z,7.60
2019-05-13T01:15:54.368Z,7.60
2019-05-13T01:18:24.117Z,7.60
2019-05-13T01:20:53.855Z,7.60
2019-05-13T01:23:24.006Z,7.60
2019-05-13T01:25:54.433Z,7.60
2019-05-13T01:28:24.190Z,7.50
2019-05-13T01:30:54.059Z,7.50
2019-05-13T01:33:23.747Z,7.50
2019-05-13T01:35:53.781Z,7.40
2019-05-13T01:38:24.095Z,7.40
2019-05-13T01:40:54.054Z,7.30
2019-05-13T01:43:24.568Z,7.30
2019-05-13T01:45:54.030Z,7.20
2019-05-13T01:48:24.048Z,7.20
2019-05-13T01:50:54.282Z,7.20
2019-05-13T01:53:24.417Z,7.10
2019-05-13T01:55:53.806Z,7.00
2019-05-13T01:58:23.684Z,7.00
2019-05-13T02:00:55.256Z,7.00
2019-05-13T02:03:24.714Z,6.90
2019-05-13T02:05:54.557Z,6.90
2019-05-13T02:08:24.540Z,6.80
2019-05-13T02:10:55.710Z,6.80
2019-05-13T02:13:25.507Z,6.90
2019-05-13T02:15:55.732Z,6.80
2019-05-13T02:18:25.201Z,6.80
2019-05-13T02:20:56.033Z,6.90
2019-05-13T02:23:25.563Z,6.90
2019-05-13T02:25:55.100Z,6.90
2019-05-13T02:28:25.280Z,6.90
2019-05-13T02:30:56.574Z,6.80
2019-05-13T02:33:25.844Z,6.80
2019-05-13T02:35:55.383Z,6.80
2019-05-13T02:38:30.146Z,6.70
2019-05-13T02:40:55.909Z,6.70
2019-05-13T02:43:25.523Z,6.60
2019-05-13T02:45:54.792Z,6.60
2019-05-13T02:48:24.474Z,6.60
2019-05-13T02:50:54.552Z,6.60
2019-05-13T02:53:24.560Z,6.50
2019-05-13T02:55:54.519Z,6.40
2019-05-13T02:58:25.148Z,6.40
2019-05-13T03:00:54.908Z,6.40
2019-05-13T03:03:24.431Z,6.30
2019-05-13T03:05:54.363Z,6.30
2019-05-13T03:08:39.243Z,6.30
2019-05-13T03:10:55.313Z,6.20
2019-05-13T03:13:24.583Z,6.20
2019-05-13T03:16:02.857Z,6.10
2019-05-13T03:18:33.466Z,6.10
2019-05-13T03:21:04.178Z,6.00
2019-05-13T03:23:34.087Z,6.00
2019-05-13T03:26:03.720Z,5.90
2019-05-13T03:28:33.952Z,5.90
2019-05-13T03:31:06.547Z,5.90
2019-05-13T03:33:36.449Z,5.90
2019-05-13T03:36:07.854Z,5.90
2019-05-13T03:38:58.035Z,5.80
2019-05-13T03:41:12.180Z,5.80
2019-05-13T03:43:43.329Z,5.80
2019-05-13T03:46:13.793Z,5.70
2019-05-13T03:48:43.279Z,5.70
2019-05-13T03:51:13.624Z,5.70
2019-05-13T03:53:43.525Z,5.70
2019-05-13T03:56:13.397Z,5.70
2019-05-13T03:58:43.678Z,5.60
2019-05-13T04:01:13.670Z,5.60
2019-05-13T04:03:44.179Z,5.60
2019-05-13T04:06:14.219Z,5.60
2019-05-13T04:08:44.290Z,5.60
2019-05-13T04:11:14.068Z,5.60
2019-05-13T04:13:43.585Z,5.60
2019-05-13T04:16:13.492Z,5.70
2019-05-13T04:18:43.386Z,5.70
2019-05-13T04:21:13.474Z,5.60
2019-05-13T04:23:43.773Z,5.70
2019-05-13T04:26:14.607Z,5.70
2019-05-13T04:28:44.190Z,5.70
2019-05-13T04:31:14.687Z,5.70
2019-05-13T04:33:44.443Z,5.70
2019-05-13T04:36:14.143Z,5.70
2019-05-13T04:38:44.449Z,5.70
2019-05-13T04:41:14.051Z,5.70
2019-05-13T04:43:44.333Z,5.70
2019-05-13T04:46:14.509Z,5.80
2019-05-13T04:48:44.816Z,5.90
2019-05-13T04:51:14.599Z,5.90
2019-05-13T04:53:44.198Z,5.90
2019-05-13T04:56:14.325Z,5.90
2019-05-13T04:58:44.124Z,5.90
2019-05-13T05:01:52.170Z,6.00
2019-05-13T05:04:30.541Z,6.10
2019-05-13T05:07:26.382Z,6.20
2019-05-13T05:10:34.727Z,6.10
2019-05-13T05:13:28.798Z,6.20
2019-05-13T05:16:21.983Z,6.20
2019-05-13T05:19:01.800Z,6.30
2019-05-13T05:22:02.890Z,6.40
2019-05-13T05:24:41.355Z,6.40
2019-05-13T05:27:36.372Z,6.50
2019-05-13T05:30:36.250Z,6.60
2019-05-13T05:34:06.372Z,6.60
2019-05-13T05:36:49.257Z,6.70
2019-05-13T05:39:27.024Z,6.80
2019-05-13T05:41:58.096Z,6.90
2019-05-13T05:44:32.484Z,6.90
2019-05-13T05:47:03.400Z,7.00
2019-05-13T05:49:32.734Z,7.20
2019-05-13T05:52:05.506Z,7.20
2019-05-13T05:54:42.158Z,7.40
2019-05-13T05:57:12.259Z,7.50
2019-05-13T05:59:42.558Z,7.50
2019-05-13T06:02:12.477Z,7.60
2019-05-13T06:04:43.321Z,7.60
2019-05-13T06:07:13.950Z,7.70
2019-05-13T06:09:43.524Z,7.80
2019-05-13T06:12:13.559Z,7.80
2019-05-13T06:14:43.171Z,7.90
2019-05-13T06:17:12.757Z,7.90
2019-05-13T06:19:42.366Z,8.00
2019-05-13T06:22:12.439Z,8.00
2019-05-13T06:24:42.481Z,8.10
2019-05-13T06:27:11.999Z,8.10
2019-05-13T06:29:42.355Z,8.20
2019-05-13T06:32:21.450Z,8.40
2019-05-13T06:34:43.289Z,8.40
2019-05-13T06:37:12.637Z,8.50
2019-05-13T06:39:42.399Z,8.70
2019-05-13T06:42:11.833Z,8.70
2019-05-13T06:44:42.155Z,8.70
2019-05-13T06:47:11.836Z,8.90
2019-05-13T06:49:42.871Z,9.00
2019-05-13T06:52:12.292Z,9.00
2019-05-13T06:54:42.072Z,9.10
2019-05-13T06:57:13.368Z,9.20
2019-05-13T06:59:43.158Z,9.20
2019-05-13T07:02:12.650Z,9.30
2019-05-13T07:04:42.164Z,9.30
2019-05-13T07:07:16.968Z,9.40
2019-05-13T07:09:43.125Z,9.50
2019-05-13T07:12:12.390Z,9.50
2019-05-13T07:14:41.931Z,9.60
2019-05-13T07:17:12.288Z,9.80
2019-05-13T07:19:42.170Z,9.80
2019-05-13T07:22:11.758Z,9.80
2019-05-13T07:24:41.610Z,9.90
2019-05-13T07:27:12.196Z,10.00
2019-05-13T07:29:42.324Z,10.20
2019-05-13T07:32:12.146Z,10.30
2019-05-13T07:34:43.864Z,10.10
2019-05-13T07:37:12.561Z,10.00
2019-05-13T07:39:42.312Z,10.10
2019-05-13T07:42:12.468Z,10.30
2019-05-13T07:44:41.917Z,10.40
2019-05-13T07:47:11.790Z,10.50
2019-05-13T07:49:41.989Z,10.50
2019-05-13T07:52:11.883Z,10.60
2019-05-13T07:54:41.995Z,10.70
2019-05-13T07:57:12.392Z,10.90
2019-05-13T07:59:42.093Z,11.00
2019-05-13T08:02:12.516Z,11.00
2019-05-13T08:04:42.228Z,11.10
2019-05-13T08:07:12.192Z,11.00
2019-05-13T08:09:42.110Z,11.10
2019-05-13T08:12:14.408Z,11.30
2019-05-13T08:14:43.657Z,11.30
2019-05-13T08:17:13.571Z,11.30
2019-05-13T08:19:43.302Z,11.40
2019-05-13T08:22:12.896Z,11.50
2019-05-13T08:24:42.594Z,11.50
2019-05-13T08:27:12.427Z,11.60
2019-05-13T08:29:42.309Z,11.70
2019-05-13T08:32:11.953Z,11.80
2019-05-13T08:34:41.900Z,12.00
2019-05-13T08:37:11.421Z,12.00
2019-05-13T08:39:41.726Z,12.00
2019-05-13T08:42:15.947Z,12.20
2019-05-13T08:44:42.748Z,12.40
2019-05-13T08:47:12.365Z,12.60
2019-05-13T08:49:41.777Z,12.50
2019-05-13T08:52:12.100Z,12.50
2019-05-13T08:54:42.094Z,12.50
2019-05-13T08:57:11.953Z,12.60
2019-05-13T08:59:42.405Z,12.70
2019-05-13T09:02:11.884Z,13.00
2019-05-13T09:04:42.244Z,13.10
2019-05-13T09:07:12.263Z,13.10
2019-05-13T09:09:42.072Z,13.20
2019-05-13T09:12:20.937Z,13.10
2019-05-13T09:14:43.166Z,13.30
2019-05-13T09:17:12.783Z,13.30
2019-05-13T09:19:42.054Z,13.40
2019-05-13T09:22:12.430Z,13.50
2019-05-13T09:24:42.765Z,13.60
2019-05-13T09:27:12.362Z,13.60
2019-05-13T09:29:42.686Z,13.70
2019-05-13T09:32:12.676Z,14.00
2019-05-13T09:34:42.405Z,14.00
2019-05-13T09:37:12.313Z,14.50
2019-05-13T09:39:42.014Z,14.90
2019-05-13T09:42:12.704Z,15.00
2019-05-13T09:44:42.209Z,15.20
2019-05-13T09:47:12.536Z,15.30
2019-05-13T09:49:42.387Z,15.50
2019-05-13T09:52:14.406Z,15.60
2019-05-13T09:54:43.755Z,15.60
2019-05-13T09:57:13.040Z,15.70
2019-05-13T09:59:42.664Z,15.70
2019-05-13T10:02:12.728Z,15.80
2019-05-13T10:04:43.747Z,16.00
2019-05-13T10:07:13.551Z,15.90
2019-05-13T10:09:44.488Z,16.00
2019-05-13T10:12:14.491Z,16.10
2019-05-13T10:14:43.761Z,15.90
2019-05-13T10:17:13.408Z,16.10
2019-05-13T10:19:42.910Z,16.40
2019-05-13T10:22:12.286Z,16.40
2019-05-13T10:24:42.232Z,16.60
2019-05-13T10:27:12.595Z,16.40
2019-05-13T10:29:42.919Z,16.70
2019-05-13T10:32:12.489Z,16.80
2019-05-13T10:34:42.779Z,17.00
2019-05-13T10:37:12.606Z,17.30
2019-05-13T10:39:42.213Z,17.20
2019-05-13T10:42:12.236Z,17.40
2019-05-13T10:44:42.351Z,17.40
2019-05-13T10:47:12.195Z,17.60
2019-05-13T10:49:42.401Z,17.60
2019-05-13T10:52:14.633Z,17.50
2019-05-13T10:54:43.898Z,17.40
2019-05-13T10:57:13.708Z,17.40
2019-05-13T10:59:43.215Z,17.30
2019-05-13T11:02:13.415Z,17.10
2019-05-13T11:04:42.825Z,17.10
2019-05-13T11:07:12.271Z,17.20
2019-05-13T11:09:41.962Z,17.40
2019-05-13T11:12:12.540Z,17.60
2019-05-13T11:14:42.357Z,17.50
2019-05-13T11:17:13.079Z,17.60
2019-05-13T11:19:42.828Z,17.80
2019-05-13T11:22:12.460Z,17.90
2019-05-13T11:24:43.131Z,17.80
2019-05-13T11:27:12.961Z,17.90
2019-05-13T11:29:42.408Z,17.90
2019-05-13T11:32:13.319Z,18.00
2019-05-13T11:34:42.856Z,18.10
2019-05-13T11:37:12.456Z,18.10
2019-05-13T11:39:42.870Z,17.90
2019-05-13T11:42:13.752Z,18.00
2019-05-13T11:44:43.226Z,18.50
2019-05-13T11:47:12.821Z,18.90
2019-05-13T11:49:42.670Z,19.10
2019-05-13T11:52:12.279Z,19.00
2019-05-13T11:54:42.481Z,19.20
2019-05-13T11:57:12.606Z,19.30
2019-05-13T11:59:43.013Z,19.50
2019-05-13T12:02:13.609Z,19.60
2019-05-13T12:04:44.014Z,19.90
2019-05-13T12:07:13.699Z,20.40
2019-05-13T12:09:43.147Z,20.90
2019-05-13T12:12:13.594Z,21.10
2019-05-13T12:15:04.980Z,21.10
2019-05-13T12:17:14.487Z,20.60
2019-05-13T12:19:44.137Z,20.40
2019-05-13T12:22:13.609Z,20.60
2019-05-13T12:24:43.015Z,20.60
2019-05-13T12:27:12.274Z,21.00
2019-05-13T12:29:42.979Z,21.30
2019-05-13T12:32:13.703Z,21.20
2019-05-13T12:37:14.389Z,20.90
2019-05-13T12:39:44.203Z,20.70
2019-05-13T12:42:13.537Z,20.90
2019-05-13T12:45:00.328Z,21.20
2019-05-13T12:47:14.136Z,21.50
2019-05-13T12:49:44.114Z,21.60
2019-05-13T12:52:13.710Z,22.00
2019-05-13T12:57:16.222Z,22.20
2019-05-13T12:59:46.053Z,22.20
2019-05-13T13:02:15.329Z,22.40
2019-05-13T13:05:07.843Z,22.30
2019-05-13T13:07:15.603Z,22.50
2019-05-13T13:09:44.874Z,22.70
2019-05-13T13:12:14.148Z,22.90
2019-05-13T13:14:44.626Z,23.00
2019-05-13T13:17:14.073Z,23.30
2019-05-13T13:19:43.627Z,23.50
2019-05-13T13:22:13.893Z,23.90
2019-05-13T13:24:50.782Z,24.10
2019-05-13T13:27:25.565Z,23.60
2019-05-13T13:29:46.156Z,23.00
2019-05-13T13:32:15.437Z,22.90
2019-05-13T13:34:44.719Z,23.20
2019-05-13T13:37:14.259Z,23.60
2019-05-13T13:39:44.081Z,24.10
2019-05-13T13:42:13.678Z,24.30
2019-05-13T13:44:43.306Z,24.30
2019-05-13T13:47:14.825Z,24.60
2019-05-13T13:49:44.167Z,25.00
2019-05-13T13:52:16.279Z,25.00
2019-05-13T13:54:45.362Z,24.80
2019-05-13T13:57:14.653Z,24.60
2019-05-13T14:00:14.070Z,24.40
2019-05-13T14:02:16.561Z,24.40
2019-05-13T14:04:45.835Z,24.60
2019-05-13T14:06:33.066Z,21.10
2019-05-13T14:06:33.331Z,22.10
2019-05-13T14:07:27.822Z,25.00
2019-05-13T14:09:46.694Z,25.00
2019-05-13T14:12:15.965Z,25.10
2019-05-13T14:14:45.240Z,24.50
2019-05-13T14:17:14.513Z,24.30
2019-05-13T14:19:43.784Z,24.30
2019-05-13T14:22:13.129Z,24.50
2019-05-13T14:24:42.805Z,24.90
2019-05-13T14:27:12.362Z,24.90
2019-05-13T14:29:48.557Z,25.20
2019-05-13T14:32:13.203Z,25.20
2019-05-13T14:34:42.485Z,25.10
2019-05-13T14:37:12.093Z,24.60
2019-05-13T14:39:41.702Z,24.30
2019-05-13T14:42:11.834Z,23.90
2019-05-13T14:44:41.094Z,23.70
2019-05-13T14:47:12.516Z,23.80
2019-05-13T14:49:42.335Z,23.80
2019-05-13T14:52:12.135Z,24.20
2019-05-13T14:54:42.175Z,24.80
2019-05-13T14:57:14.886Z,25.20
2019-05-13T14:59:43.158Z,25.50
2019-05-13T15:02:12.463Z,25.90
2019-05-13T15:04:42.037Z,25.80
2019-05-13T15:07:12.372Z,25.30
2019-05-13T15:09:42.227Z,25.30
2019-05-13T15:12:11.642Z,25.30
2019-05-13T15:14:42.918Z,25.30
2019-05-13T15:17:12.870Z,25.30
2019-05-13T15:19:42.387Z,25.50
2019-05-13T15:22:15.347Z,26.00
2019-05-13T15:24:42.659Z,26.40
2019-05-13T15:27:11.927Z,26.90
2019-05-13T15:29:41.759Z,27.00
2019-05-13T15:32:11.297Z,26.90
2019-05-13T15:34:42.521Z,27.20
2019-05-13T15:37:11.522Z,27.60
2019-05-13T15:39:42.569Z,27.90
2019-05-13T15:42:12.117Z,28.00
2019-05-13T15:44:41.541Z,28.20
2019-05-13T15:47:22.677Z,28.90
2019-05-13T15:49:41.829Z,29.10
2019-05-13T15:52:11.933Z,29.60
2019-05-13T15:54:41.580Z,30.10
2019-05-13T15:57:11.893Z,30.60
2019-05-13T15:59:41.649Z,31.30
2019-05-13T16:02:11.794Z,32.10
2019-05-13T16:04:49.951Z,33.00
2019-05-13T16:07:12.436Z,32.30
2019-05-13T16:09:42.186Z,32.80
2019-05-13T16:12:12.157Z,33.40
2019-05-13T16:14:42.072Z,34.10
2019-05-13T16:17:12.278Z,33.50
2019-05-13T16:19:42.144Z,32.10
2019-05-13T16:22:12.070Z,30.80
2019-05-13T16:24:41.748Z,29.60
2019-05-13T16:27:11.844Z,28.90
2019-05-13T16:29:42.208Z,28.80
2019-05-13T16:32:12.141Z,29.80
2019-05-13T16:34:42.471Z,30.00
2019-05-13T16:37:11.872Z,29.30
2019-05-13T16:39:41.584Z,28.50
2019-05-13T16:42:11.710Z,28.20
2019-05-13T16:44:43.021Z,27.60
2019-05-13T16:47:12.501Z,27.70
2019-05-13T16:49:41.772Z,27.80
2019-05-13T16:52:11.819Z,27.30
2019-05-13T16:54:42.406Z,26.50
2019-05-13T16:57:12.272Z,26.00
2019-05-13T16:59:41.874Z,25.80
2019-05-13T17:02:12.595Z,25.80
2019-05-13T17:04:42.366Z,25.40
2019-05-13T17:07:11.924Z,25.20
2019-05-13T17:09:41.640Z,24.80
2019-05-13T17:12:12.888Z,24.40
2019-05-13T17:14:42.382Z,24.10
2019-05-13T17:17:12.013Z,23.90
2019-05-13T17:19:42.313Z,23.90
2019-05-13T17:22:11.762Z,24.10
2019-05-13T17:24:42.619Z,24.20
2019-05-13T17:27:12.298Z,24.30
2019-05-13T17:29:41.549Z,24.40
2019-05-13T17:32:11.602Z,24.30
2019-05-13T17:34:45.281Z,24.20
2019-05-13T17:37:12.251Z,24.00
2019-05-13T17:39:41.681Z,23.90
2019-05-13T17:42:12.164Z,23.90
2019-05-13T17:44:46.305Z,23.70
2019-05-13T17:47:13.846Z,23.60
2019-05-13T17:49:43.118Z,23.30
2019-05-13T17:52:12.389Z,23.20
2019-05-13T17:54:42.814Z,23.10
2019-05-13T17:57:12.563Z,22.80
2019-05-13T17:59:42.139Z,22.60
2019-05-13T18:02:11.968Z,22.50
2019-05-13T18:04:41.746Z,22.20
2019-05-13T18:07:12.183Z,22.00
2019-05-13T18:09:42.472Z,21.70
2019-05-13T18:12:12.066Z,21.50
2019-05-13T18:14:41.426Z,21.10
2019-05-13T18:17:12.504Z,20.80
2019-05-13T18:19:42.246Z,20.60
2019-05-13T18:22:11.926Z,20.30
2019-05-13T18:24:41.540Z,20.10
2019-05-13T18:27:12.226Z,19.90
2019-05-13T18:29:42.130Z,19.60
2019-05-13T18:32:12.399Z,19.40
2019-05-13T18:34:41.840Z,19.20
2019-05-13T18:37:11.961Z,19.10
2019-05-13T18:39:41.715Z,18.90
2019-05-13T18:42:11.642Z,18.70
2019-05-13T18:44:42.128Z,18.50
2019-05-13T18:47:12.231Z,18.30
2019-05-13T18:49:42.310Z,18.10
2019-05-13T18:52:12.038Z,18.00
2019-05-13T18:54:42.083Z,17.80
2019-05-13T18:57:12.203Z,17.70
2019-05-13T18:59:41.841Z,17.60
2019-05-13T19:02:12.234Z,17.40
2019-05-13T19:04:42.116Z,17.20
2019-05-13T19:07:11.724Z,17.00
2019-05-13T19:09:41.832Z,16.90
2019-05-13T19:12:11.708Z,16.80
2019-05-13T19:14:41.317Z,16.70
2019-05-13T19:17:12.319Z,16.60
2019-05-13T19:19:42.269Z,16.40
2019-05-13T19:22:12.360Z,16.30
2019-05-13T19:24:41.788Z,16.20
2019-05-13T19:27:12.053Z,16.10
2019-05-13T19:29:42.479Z,16.00
2019-05-13T19:32:12.555Z,15.90
2019-05-13T19:34:42.536Z,15.80
2019-05-13T19:37:12.249Z,15.70
2019-05-13T19:39:41.517Z,15.60
2019-05-13T19:42:11.657Z,15.50
2019-05-13T19:44:42.023Z,15.40
2019-05-13T19:47:12.389Z,15.30
2019-05-13T19:49:46.085Z,15.20
2019-05-13T19:52:13.159Z,15.10
2019-05-13T19:54:42.428Z,15.00
2019-05-13T19:57:12.076Z,14.90
2019-05-13T19:59:42.668Z,14.80
2019-05-13T20:02:12.450Z,14.70
2019-05-13T20:04:41.736Z,14.60
2019-05-13T20:07:11.967Z,14.60
2019-05-13T20:09:42.533Z,14.50
2019-05-13T20:12:12.181Z,14.40
2019-05-13T20:14:42.604Z,14.30
2019-05-13T20:17:12.372Z,14.20
2019-05-13T20:19:50.125Z,14.10
2019-05-13T20:22:13.272Z,14.00
2019-05-13T20:24:42.544Z,14.00
2019-05-13T20:27:12.183Z,13.90
2019-05-13T20:29:41.813Z,13.70
2019-05-13T20:32:11.689Z,13.70
2019-05-13T20:34:41.059Z,13.60
2019-05-13T20:37:12.456Z,13.50
2019-05-13T20:39:42.421Z,13.50
2019-05-13T20:42:12.445Z,13.40
2019-05-13T20:44:42.299Z,13.40
2019-05-13T20:47:11.598Z,13.30
2019-05-13T20:49:41.697Z,13.20
2019-05-13T20:52:14.990Z,13.10
2019-05-13T20:54:42.778Z,13.00
2019-05-13T20:57:12.061Z,13.00
2019-05-13T20:59:41.686Z,12.90
2019-05-13T21:02:12.422Z,12.80
2019-05-13T21:04:42.141Z,12.70
2019-05-13T21:07:11.755Z,12.70
2019-05-13T21:09:42.323Z,12.70
2019-05-13T21:12:12.182Z,12.60
2019-05-13T21:14:41.759Z,12.50
2019-05-13T21:17:12.192Z,12.40
2019-05-13T21:19:42.839Z,12.40
2019-05-13T21:22:12.660Z,12.30
2019-05-13T21:24:42.278Z,12.30
2019-05-13T21:27:12.043Z,12.20
2019-05-13T21:29:41.685Z,12.10
2019-05-13T21:32:11.793Z,12.10
2019-05-13T21:34:41.518Z,12.00
2019-05-13T21:37:11.575Z,11.90
2019-05-13T21:39:41.399Z,11.80
2019-05-13T21:42:11.458Z,11.70
2019-05-13T21:44:41.985Z,11.70
2019-05-13T21:47:11.709Z,11.60
2019-05-13T21:49:42.316Z,11.60
2019-05-13T21:52:12.052Z,11.50
2019-05-13T21:54:42.171Z,11.40
2019-05-13T21:57:11.657Z,11.30
2019-05-13T21:59:41.475Z,11.20
2019-05-13T22:02:11.271Z,11.20
2019-05-13T22:04:41.255Z,11.10
2019-05-13T22:07:12.211Z,11.00
2019-05-13T22:09:42.256Z,10.90
2019-05-13T22:12:11.762Z,10.90
2019-05-13T22:14:41.334Z,10.80
2019-05-13T22:17:12.355Z,10.80
2019-05-13T22:19:42.062Z,10.70
2019-05-13T22:22:11.684Z,10.70
2019-05-13T22:24:41.833Z,10.60
2019-05-13T22:27:13.262Z,10.50
2019-05-13T22:29:42.268Z,10.40
2019-05-13T22:32:11.540Z,10.40
2019-05-13T22:34:41.895Z,10.30
2019-05-13T22:37:11.788Z,10.30
2019-05-13T22:39:42.059Z,10.20
2019-05-13T22:42:12.494Z,10.10
2019-05-13T22:44:42.041Z,10.10
2019-05-13T22:47:13.445Z,10.00
2019-05-13T22:49:42.299Z,9.90
2019-05-13T22:52:11.566Z,9.90
2019-05-13T22:54:41.300Z,9.80
2019-05-13T22:57:11.913Z,9.80
2019-05-13T22:59:41.730Z,9.70
2019-05-13T23:02:11.093Z,9.70
2019-05-13T23:04:41.855Z,9.60
2019-05-13T23:07:11.800Z,9.50
2019-05-13T23:09:41.739Z,9.50
2019-05-13T23:12:12.343Z,9.40
2019-05-13T23:14:41.724Z,9.40
2019-05-13T23:17:12.463Z,9.30
2019-05-13T23:19:41.942Z,9.20
2019-05-13T23:22:12.085Z,9.20
2019-05-13T23:24:41.843Z,9.10
2019-05-13T23:27:11.269Z,9.10
2019-05-13T23:29:41.221Z,9.00
2019-05-13T23:32:12.071Z,8.90
2019-05-13T23:34:42.256Z,8.90
2019-05-13T23:37:11.918Z,8.80
2019-05-13T23:39:41.763Z,8.70
2019-05-13T23:42:12.132Z,8.70
2019-05-13T23:44:41.784Z,8.70
2019-05-13T23:47:11.644Z,8.60
2019-05-13T23:49:42.103Z,8.50
2019-05-13T23:52:12.000Z,8.50
2019-05-13T23:54:42.429Z,8.40
2019-05-13T23:57:12.050Z,8.40
2019-05-13T23:59:42.110Z,8.30
